Time;durP1;ratioP1;P1;durP2;ratioP2;P2;SDS_P1;SDS_P2;PMS_P1;PMS_P2;Temp;Humidity;BMP_temperature;BMP_pressure;BME280_temperature;BME280_humidity;BME280_pressure;Samples;Min_cycle;Max_cycle;Signal;HPM_P1;HPM_P2
2021/06/03 00:00:11;;;;;;;6.87;6.27;;;;;;;;;;5011626;28;21015;-62
2021/06/03 00:02:37;;;;;;;6.20;5.70;;;;;;;;;;5009604;28;20858;-62
2021/06/03 00:05:05;;;;;;;6.70;6.17;;;;;;;;;;5011578;28;20475;-62
2021/06/03 00:07:32;;;;;;;6.80;6.30;;;;;;;;;;5008939;28;21016;-62
2021/06/03 00:09:58;;;;;;;6.23;5.73;;;;;;;;;;4996612;28;20505;-61
2021/06/03 00:12:25;;;;;;;8.33;5.60;;;;;;;;;;5006223;28;20497;-61
2021/06/03 00:14:52;;;;;;;6.63;6.03;;;;;;;;;;5004207;28;20476;-62
2021/06/03 00:17:20;;;;;;;6.90;6.30;;;;;;;;;;5011941;28;20482;-61
2021/06/03 00:19:46;;;;;;;7.87;6.20;;;;;;;;;;5011279;28;20834;-62
2021/06/03 00:22:13;;;;;;;7.03;6.50;;;;;;;;;;5012549;28;20473;-62
2021/06/03 00:24:40;;;;;;;7.07;6.47;;;;;;;;;;5029420;28;20449;-62
2021/06/03 00:27:06;;;;;;;6.77;6.20;;;;;;;;;;5011424;28;20480;-64
2021/06/03 00:29:33;;;;;;;7.07;6.37;;;;;;;;;;5010828;28;20469;-62
2021/06/03 00:32:00;;;;;;;6.93;6.30;;;;;;;;;;5005854;28;20556;-61
2021/06/03 00:34:28;;;;;;;7.30;6.60;;;;;;;;;;5000913;28;20482;-64
2021/06/03 00:36:54;;;;;;;7.40;6.83;;;;;;;;;;4992867;28;20478;-62
2021/06/03 00:39:21;;;;;;;7.17;6.67;;;;;;;;;;4992988;28;20486;-62
2021/06/03 00:41:47;;;;;;;6.60;6.10;;;;;;;;;;5000615;28;20490;-63
2021/06/03 00:44:14;;;;;;;6.73;6.23;;;;;;;;;;4993166;28;20463;-62
2021/06/03 00:46:41;;;;;;;7.23;6.53;;;;;;;;;;5004401;28;20999;-62
2021/06/03 00:49:07;;;;;;;7.53;6.23;;;;;;;;;;5012435;28;20445;-62
2021/06/03 00:51:35;;;;;;;6.53;6.03;;;;;;;;;;5010234;28;20474;-61
2021/06/03 00:54:02;;;;;;;7.20;6.60;;;;;;;;;;5011198;28;20465;-62
2021/06/03 00:56:28;;;;;;;6.87;6.33;;;;;;;;;;5009609;28;20508;-62
2021/06/03 00:58:56;;;;;;;6.83;6.30;;;;;;;;;;4999079;28;20461;-61
2021/06/03 01:01:22;;;;;;;6.60;6.10;;;;;;;;;;5007188;28;20492;-61
2021/06/03 01:03:49;;;;;;;6.73;6.23;;;;;;;;;;5010742;28;20473;-62
2021/06/03 01:06:17;;;;;;;7.33;6.63;;;;;;;;;;4997663;28;20462;-62
2021/06/03 01:08:48;;;;;;;6.97;6.37;;;;;;;;;;4993240;28;20454;-62
2021/06/03 01:11:17;;;;;;;7.13;6.60;;;;;;;;;;4997171;28;20485;-63
2021/06/03 01:13:47;;;;;;;6.83;6.13;;;;;;;;;;4992392;28;20482;-63
2021/06/03 01:16:14;;;;;;;6.80;6.30;;;;;;;;;;4999912;28;20469;-63
2021/06/03 01:18:42;;;;;;;7.70;7.10;;;;;;;;;;5003424;28;20469;-63
2021/06/03 01:21:11;;;;;;;6.43;6.03;;;;;;;;;;5005221;28;20461;-62
2021/06/03 01:23:40;;;;;;;6.83;6.33;;;;;;;;;;5004223;28;20486;-63
2021/06/03 01:26:08;;;;;;;7.27;6.57;;;;;;;;;;5000039;28;20465;-61
2021/06/03 01:28:35;;;;;;;6.43;5.93;;;;;;;;;;5009867;28;20477;-62
2021/06/03 01:31:02;;;;;;;7.10;6.60;;;;;;;;;;5010744;28;20944;-63
2021/06/03 01:33:30;;;;;;;6.50;6.00;;;;;;;;;;5009830;28;20481;-62
2021/06/03 01:35:58;;;;;;;5.97;5.57;;;;;;;;;;5009633;28;20474;-63
2021/06/03 01:38:26;;;;;;;7.50;6.80;;;;;;;;;;4997699;28;20821;-63
2021/06/03 01:40:52;;;;;;;8.67;7.73;;;;;;;;;;4999348;28;20485;-63
2021/06/03 01:43:21;;;;;;;6.60;6.10;;;;;;;;;;5010999;28;20488;-63
2021/06/03 01:45:48;;;;;;;7.10;6.50;;;;;;;;;;5008270;28;20505;-63
2021/06/03 01:48:16;;;;;;;6.77;6.27;;;;;;;;;;5018262;28;20455;-63
2021/06/03 01:50:43;;;;;;;7.30;6.70;;;;;;;;;;5016368;28;20844;-63
2021/06/03 01:53:10;;;;;;;7.10;6.50;;;;;;;;;;5015239;28;20492;-63
2021/06/03 01:55:37;;;;;;;6.70;6.20;;;;;;;;;;5009842;28;20591;-65
2021/06/03 01:58:04;;;;;;;6.93;6.43;;;;;;;;;;5010924;28;20512;-64
2021/06/03 02:00:32;;;;;;;7.53;6.70;;;;;;;;;;5007850;28;20477;-63
2021/06/03 02:02:59;;;;;;;7.40;6.80;;;;;;;;;;5016504;28;21035;-65
2021/06/03 02:05:26;;;;;;;7.20;6.57;;;;;;;;;;5007485;28;20458;-64
2021/06/03 02:07:52;;;;;;;6.67;6.17;;;;;;;;;;5015582;28;20468;-65
2021/06/03 02:10:20;;;;;;;6.70;6.20;;;;;;;;;;5016940;28;20450;-63
2021/06/03 02:12:48;;;;;;;8.77;6.10;;;;;;;;;;5008402;28;20497;-63
2021/06/03 02:15:16;;;;;;;7.00;6.40;;;;;;;;;;5017043;28;20465;-63
2021/06/03 02:17:46;;;;;;;6.40;5.90;;;;;;;;;;5011703;28;20523;-63
2021/06/03 02:20:15;;;;;;;6.77;6.27;;;;;;;;;;5011473;28;20485;-63
2021/06/03 02:22:43;;;;;;;7.00;6.43;;;;;;;;;;5007204;28;20486;-64
2021/06/03 02:25:10;;;;;;;6.70;6.17;;;;;;;;;;5006821;28;20445;-63
2021/06/03 02:27:38;;;;;;;6.90;6.40;;;;;;;;;;5015997;28;20469;-63
2021/06/03 02:30:05;;;;;;;6.63;6.10;;;;;;;;;;5018185;28;20453;-63
2021/06/03 02:32:33;;;;;;;7.50;6.90;;;;;;;;;;5014883;28;22431;-62
2021/06/03 02:35:01;;;;;;;6.93;6.43;;;;;;;;;;5016470;28;20469;-63
2021/06/03 02:37:28;;;;;;;7.53;6.83;;;;;;;;;;5012448;28;20469;-63
2021/06/03 02:39:58;;;;;;;7.60;7.00;;;;;;;;;;4998057;28;20501;-62
2021/06/03 02:42:25;;;;;;;7.57;6.97;;;;;;;;;;5004051;28;20632;-62
2021/06/03 02:44:51;;;;;;;7.30;6.60;;;;;;;;;;5013224;28;20465;-62
2021/06/03 02:47:19;;;;;;;6.83;6.23;;;;;;;;;;4999442;28;20962;-63
2021/06/03 02:49:45;;;;;;;7.47;6.80;;;;;;;;;;5002448;28;20474;-64
2021/06/03 02:52:13;;;;;;;7.17;6.67;;;;;;;;;;5005961;28;20922;-64
2021/06/03 02:54:40;;;;;;;7.40;6.90;;;;;;;;;;5015452;28;20971;-65
2021/06/03 02:57:07;;;;;;;7.00;6.50;;;;;;;;;;5016459;28;20449;-65
2021/06/03 02:59:33;;;;;;;7.20;6.57;;;;;;;;;;5000102;28;20548;-64
2021/06/03 03:02:01;;;;;;;7.80;7.10;;;;;;;;;;4994645;28;20986;-66
2021/06/03 03:04:27;;;;;;;7.90;6.70;;;;;;;;;;5009806;28;20505;-63
2021/06/03 03:06:54;;;;;;;7.60;6.90;;;;;;;;;;4994628;28;20450;-63
2021/06/03 03:09:22;;;;;;;7.47;6.90;;;;;;;;;;4996303;28;20462;-63
2021/06/03 03:11:48;;;;;;;6.30;5.80;;;;;;;;;;5006720;28;20486;-63
2021/06/03 03:14:15;;;;;;;8.13;7.53;;;;;;;;;;5003848;28;20853;-62
2021/06/03 03:16:41;;;;;;;7.83;6.97;;;;;;;;;;5009187;23;20526;-68
2021/06/03 03:19:08;;;;;;;7.50;6.63;;;;;;;;;;4976725;28;20526;-68
2021/06/03 03:21:35;;;;;;;7.53;6.93;;;;;;;;;;4973515;28;20808;-68
2021/06/03 03:24:01;;;;;;;7.10;6.57;;;;;;;;;;4973129;28;20455;-67
2021/06/03 03:26:29;;;;;;;8.43;7.57;;;;;;;;;;4973292;28;20833;-68
2021/06/03 03:28:56;;;;;;;6.90;6.30;;;;;;;;;;4972599;28;20466;-68
2021/06/03 03:31:22;;;;;;;8.87;6.80;;;;;;;;;;4966774;28;20455;-68
2021/06/03 03:33:49;;;;;;;7.50;6.90;;;;;;;;;;4974021;28;20513;-68
2021/06/03 03:36:16;;;;;;;8.77;8.17;;;;;;;;;;4973388;28;20495;-67
2021/06/03 03:38:42;;;;;;;7.83;7.20;;;;;;;;;;4975682;28;20517;-68
2021/06/03 03:41:09;;;;;;;7.97;7.17;;;;;;;;;;4971687;28;20498;-68
2021/06/03 03:43:37;;;;;;;8.23;7.40;;;;;;;;;;4973234;28;20476;-68
2021/06/03 03:46:04;;;;;;;7.90;7.27;;;;;;;;;;4971008;28;20525;-68
2021/06/03 03:48:30;;;;;;;7.87;7.27;;;;;;;;;;4973880;28;20451;-68
2021/06/03 03:50:57;;;;;;;8.53;7.37;;;;;;;;;;4972727;28;20973;-68
2021/06/03 03:53:24;;;;;;;8.47;7.77;;;;;;;;;;4973359;28;20458;-68
2021/06/03 03:55:50;;;;;;;8.37;7.77;;;;;;;;;;4971948;28;20505;-67
2021/06/03 03:58:17;;;;;;;8.27;7.67;;;;;;;;;;4973890;28;20452;-68
2021/06/03 04:00:45;;;;;;;7.60;6.93;;;;;;;;;;4971000;28;20491;-68
2021/06/03 04:03:12;;;;;;;8.77;8.10;;;;;;;;;;4972991;28;20477;-68
2021/06/03 04:05:38;;;;;;;8.40;7.70;;;;;;;;;;4970796;28;20829;-68
2021/06/03 04:08:05;;;;;;;8.63;7.83;;;;;;;;;;4973178;28;20974;-67
2021/06/03 04:10:32;;;;;;;8.17;7.50;;;;;;;;;;4970980;28;20870;-67
2021/06/03 04:12:59;;;;;;;15.73;7.93;;;;;;;;;;4973306;28;20456;-68
2021/06/03 04:15:35;;;;;;;;;;;;;;;;;;;;;
2021/06/03 04:18:06;;;;;;;8.43;7.60;;;;;;;;;;5166320;27;21094;-69
2021/06/03 04:20:34;;;;;;;7.50;6.80;;;;;;;;;;5145948;27;20459;-69
2021/06/03 04:23:01;;;;;;;8.30;7.70;;;;;;;;;;5149679;27;21010;-67
2021/06/03 04:25:28;;;;;;;8.23;7.60;;;;;;;;;;5144763;27;20539;-68
2021/06/03 04:27:55;;;;;;;8.83;7.80;;;;;;;;;;5143828;27;20591;-68
2021/06/03 04:30:22;;;;;;;8.40;7.80;;;;;;;;;;5128314;27;20460;-68
2021/06/03 04:32:49;;;;;;;8.90;8.20;;;;;;;;;;5137114;27;20463;-68
2021/06/03 04:35:18;;;;;;;9.20;8.50;;;;;;;;;;5136972;27;20471;-68
2021/06/03 04:37:44;;;;;;;8.00;7.40;;;;;;;;;;5133471;27;20495;-69
2021/06/03 04:40:12;;;;;;;8.70;7.80;;;;;;;;;;5129533;27;20970;-68
2021/06/03 04:42:39;;;;;;;7.87;7.27;;;;;;;;;;5132017;27;20456;-69
2021/06/03 04:45:06;;;;;;;8.37;7.57;;;;;;;;;;5127913;27;20456;-69
2021/06/03 04:47:33;;;;;;;9.20;8.50;;;;;;;;;;5128605;28;20982;-69
2021/06/03 04:50:00;;;;;;;8.43;7.83;;;;;;;;;;5127793;27;20490;-69
2021/06/03 04:52:29;;;;;;;9.77;6.20;;;;;;;;;;5137095;27;20455;-69
2021/06/03 04:54:56;;;;;;;11.63;5.57;;;;;;;;;;5131186;27;20464;-67
2021/06/03 04:57:23;;;;;;;6.83;5.63;;;;;;;;;;5128255;27;20480;-69
2021/06/03 04:59:49;;;;;;;6.83;6.33;;;;;;;;;;5130227;27;20437;-70
2021/06/03 05:02:16;;;;;;;7.60;7.00;;;;;;;;;;5131235;27;20468;-69
2021/06/03 05:04:43;;;;;;;7.20;6.60;;;;;;;;;;5145182;27;20447;-67
2021/06/03 05:07:10;;;;;;;6.10;5.50;;;;;;;;;;5134402;27;20525;-66
2021/06/03 05:09:39;;;;;;;5.83;5.20;;;;;;;;;;5128886;28;20807;-67
2021/06/03 05:12:06;;;;;;;5.40;5.00;;;;;;;;;;5128966;28;20452;-66
2021/06/03 05:14:33;;;;;;;4.80;4.50;;;;;;;;;;5128894;28;20957;-67
2021/06/03 05:16:59;;;;;;;5.43;4.93;;;;;;;;;;5127358;27;20924;-66
2021/06/03 05:19:26;;;;;;;4.60;4.20;;;;;;;;;;5129242;27;20447;-67
2021/06/03 05:21:53;;;;;;;5.60;5.00;;;;;;;;;;5128537;27;20445;-67
2021/06/03 05:24:19;;;;;;;5.83;5.27;;;;;;;;;;5129391;27;20444;-69
2021/06/03 05:26:48;;;;;;;4.57;4.27;;;;;;;;;;5127168;27;20465;-69
2021/06/03 05:29:15;;;;;;;6.03;4.50;;;;;;;;;;5116113;28;20451;-67
2021/06/03 05:31:42;;;;;;;5.70;5.20;;;;;;;;;;5115001;28;20460;-68
2021/06/03 05:34:08;;;;;;;4.37;3.97;;;;;;;;;;5114865;28;20449;-68
2021/06/03 05:36:35;;;;;;;5.50;5.07;;;;;;;;;;5113692;28;20843;-68
2021/06/03 05:39:02;;;;;;;5.43;4.97;;;;;;;;;;5113812;28;20475;-69
2021/06/03 05:41:28;;;;;;;5.67;5.17;;;;;;;;;;5114508;27;20456;-71
2021/06/03 05:43:56;;;;;;;5.60;4.97;;;;;;;;;;5114423;28;20457;-67
2021/06/03 05:46:23;;;;;;;5.13;4.70;;;;;;;;;;5113996;28;20468;-65
2021/06/03 05:48:50;;;;;;;8.27;5.13;;;;;;;;;;5114568;28;20544;-67
2021/06/03 05:51:17;;;;;;;6.50;4.80;;;;;;;;;;5113948;28;20460;-67
2021/06/03 05:53:43;;;;;;;5.07;4.60;;;;;;;;;;5113728;28;20821;-66
2021/06/03 05:56:10;;;;;;;5.43;4.93;;;;;;;;;;5112731;28;20481;-66
2021/06/03 05:58:37;;;;;;;5.67;5.10;;;;;;;;;;5114005;28;20449;-66
2021/06/03 06:01:05;;;;;;;10.20;4.30;;;;;;;;;;5114181;28;20494;-65
2021/06/03 06:03:37;;;;;;;5.40;4.63;;;;;;;;;;5114559;28;20448;-66
2021/06/03 06:06:22;;;;;;;6.43;5.80;;;;;;;;;;5112825;28;20559;-65
2021/06/03 06:08:49;;;;;;;7.40;5.20;;;;;;;;;;5114605;28;20433;-66
2021/06/03 06:11:16;;;;;;;7.57;6.93;;;;;;;;;;5113667;27;20973;-67
2021/06/03 06:13:43;;;;;;;7.83;7.17;;;;;;;;;;5114173;28;20497;-67
2021/06/03 06:16:11;;;;;;;7.70;6.83;;;;;;;;;;5111554;28;20860;-67
2021/06/03 06:18:38;;;;;;;7.20;6.60;;;;;;;;;;5113896;28;20822;-67
2021/06/03 06:21:05;;;;;;;7.93;7.00;;;;;;;;;;5113829;28;20456;-67
2021/06/03 06:23:34;;;;;;;7.50;6.90;;;;;;;;;;5113853;28;20449;-65
2021/06/03 06:26:00;;;;;;;9.00;7.10;;;;;;;;;;5113047;28;20468;-68
2021/06/03 06:28:27;;;;;;;8.87;6.73;;;;;;;;;;5114055;28;20455;-67
2021/06/03 06:30:54;;;;;;;8.17;7.47;;;;;;;;;;5113975;28;20456;-68
2021/06/03 06:33:22;;;;;;;7.60;7.10;;;;;;;;;;5113707;28;20475;-67
2021/06/03 06:35:49;;;;;;;8.13;7.53;;;;;;;;;;5113158;28;20971;-67
2021/06/03 06:38:16;;;;;;;7.90;7.27;;;;;;;;;;5113208;28;20485;-67
2021/06/03 06:40:42;;;;;;;7.50;7.00;;;;;;;;;;5112923;28;20444;-67
2021/06/03 06:43:09;;;;;;;7.47;6.90;;;;;;;;;;5113440;28;20441;-67
2021/06/03 06:45:37;;;;;;;7.37;6.87;;;;;;;;;;5112935;28;20445;-67
2021/06/03 06:48:04;;;;;;;7.50;6.80;;;;;;;;;;5113560;28;20445;-67
2021/06/03 06:50:33;;;;;;;8.80;7.13;;;;;;;;;;5113968;28;20455;-67
2021/06/03 06:53:00;;;;;;;8.10;7.40;;;;;;;;;;5113128;28;20948;-67
2021/06/03 06:55:26;;;;;;;7.90;7.10;;;;;;;;;;5112411;28;20448;-67
2021/06/03 06:57:54;;;;;;;8.33;7.53;;;;;;;;;;5113426;28;20484;-67
2021/06/03 07:00:22;;;;;;;8.10;6.87;;;;;;;;;;5113358;28;20525;-68
2021/06/03 07:02:48;;;;;;;7.70;6.90;;;;;;;;;;5113861;28;20448;-68
2021/06/03 07:05:15;;;;;;;7.60;7.00;;;;;;;;;;5112940;28;20453;-66
2021/06/03 07:07:43;;;;;;;8.07;7.40;;;;;;;;;;5112963;27;20461;-68
2021/06/03 07:10:11;;;;;;;7.87;7.27;;;;;;;;;;5112627;28;20807;-68
2021/06/03 07:12:38;;;;;;;6.90;6.40;;;;;;;;;;5113103;28;20480;-67
2021/06/03 07:15:06;;;;;;;7.40;6.80;;;;;;;;;;5113092;28;20440;-66
2021/06/03 07:17:32;;;;;;;7.10;6.50;;;;;;;;;;5111017;28;20489;-68
2021/06/03 07:19:59;;;;;;;7.50;6.90;;;;;;;;;;5112845;28;20940;-68
2021/06/03 07:22:25;;;;;;;7.93;7.13;;;;;;;;;;5113451;28;20452;-68
2021/06/03 07:24:53;;;;;;;8.17;6.33;;;;;;;;;;5113288;28;20455;-67
2021/06/03 07:27:20;;;;;;;7.83;6.80;;;;;;;;;;5111954;28;20461;-68
2021/06/03 07:29:47;;;;;;;7.27;6.50;;;;;;;;;;5112761;28;20452;-68
2021/06/03 07:32:13;;;;;;;7.00;6.50;;;;;;;;;;5112925;28;20445;-67
2021/06/03 07:34:40;;;;;;;7.07;6.47;;;;;;;;;;5112505;28;20453;-68
2021/06/03 07:37:06;;;;;;;13.63;6.70;;;;;;;;;;5111930;28;20488;-68
2021/06/03 07:39:33;;;;;;;6.63;6.03;;;;;;;;;;5112498;28;20445;-67
2021/06/03 07:42:01;;;;;;;6.70;6.10;;;;;;;;;;5112369;28;20501;-67
2021/06/03 07:44:28;;;;;;;12.07;6.27;;;;;;;;;;5112998;28;20448;-68
2021/06/03 07:46:54;;;;;;;7.03;6.43;;;;;;;;;;5111526;28;20468;-67
2021/06/03 07:49:21;;;;;;;8.77;6.27;;;;;;;;;;5112772;28;20449;-68
2021/06/03 07:51:47;;;;;;;6.70;6.10;;;;;;;;;;5112239;28;20730;-68
2021/06/03 07:54:14;;;;;;;6.80;6.20;;;;;;;;;;5112086;28;20971;-67
2021/06/03 07:56:41;;;;;;;7.80;7.20;;;;;;;;;;5110870;28;20479;-68
2021/06/03 07:59:09;;;;;;;6.97;6.30;;;;;;;;;;5112361;28;20935;-68
2021/06/03 08:01:35;;;;;;;6.80;6.30;;;;;;;;;;5112115;28;20441;-68
2021/06/03 08:04:02;;;;;;;6.37;5.80;;;;;;;;;;5112233;28;20644;-67
2021/06/03 08:06:28;;;;;;;6.97;5.70;;;;;;;;;;5111360;28;20461;-67
2021/06/03 08:08:55;;;;;;;7.60;6.60;;;;;;;;;;5112427;28;20866;-68
2021/06/03 08:11:21;;;;;;;7.20;6.30;;;;;;;;;;5112014;28;20442;-67
2021/06/03 08:13:48;;;;;;;6.70;6.00;;;;;;;;;;5112261;28;20441;-65
2021/06/03 08:16:18;;;;;;;6.63;6.13;;;;;;;;;;5111105;28;20487;-67
2021/06/03 08:18:45;;;;;;;6.53;6.03;;;;;;;;;;5112344;28;20476;-67
2021/06/03 08:21:11;;;;;;;5.70;5.30;;;;;;;;;;5113162;28;20939;-68
2021/06/03 08:23:38;;;;;;;6.13;5.70;;;;;;;;;;5112054;28;20494;-67
2021/06/03 08:26:05;;;;;;;6.83;6.23;;;;;;;;;;5110999;28;20469;-66
2021/06/03 08:28:32;;;;;;;6.53;5.93;;;;;;;;;;5112280;28;20451;-67
2021/06/03 08:31:00;;;;;;;7.13;6.30;;;;;;;;;;5112213;28;20446;-67
2021/06/03 08:33:28;;;;;;;6.20;5.60;;;;;;;;;;5112054;28;20479;-67
2021/06/03 08:35:55;;;;;;;9.30;5.70;;;;;;;;;;5111150;28;20465;-67
2021/06/03 08:38:22;;;;;;;6.50;5.90;;;;;;;;;;5111660;28;20476;-67
2021/06/03 08:40:50;;;;;;;6.10;5.60;;;;;;;;;;5112123;28;20445;-66
2021/06/03 08:43:17;;;;;;;6.80;5.67;;;;;;;;;;5112262;28;20537;-67
2021/06/03 08:45:44;;;;;;;6.17;5.57;;;;;;;;;;5110921;28;20838;-68
2021/06/03 08:48:11;;;;;;;5.93;5.43;;;;;;;;;;5111876;28;20440;-67
2021/06/03 08:50:40;;;;;;;7.27;5.90;;;;;;;;;;5111473;28;20787;-67
2021/06/03 08:53:07;;;;;;;6.50;6.00;;;;;;;;;;5111510;28;20460;-67
2021/06/03 08:58:21;;;;;;;7.57;6.07;;;;;;;;;;5111667;28;20521;-67
2021/06/03 09:00:48;;;;;;;6.80;6.13;;;;;;;;;;5112164;28;20449;-67
2021/06/03 09:03:15;;;;;;;6.70;6.20;;;;;;;;;;5112615;28;20456;-66
2021/06/03 09:05:44;;;;;;;6.70;6.10;;;;;;;;;;5114688;28;20911;-66
2021/06/03 09:08:18;;;;;;;6.33;5.73;;;;;;;;;;5115856;28;20437;-67
2021/06/03 09:10:45;;;;;;;8.93;5.80;;;;;;;;;;5115410;28;20452;-67
2021/06/03 09:13:13;;;;;;;6.37;5.77;;;;;;;;;;5115443;28;20849;-68
2021/06/03 09:15:41;;;;;;;6.00;5.50;;;;;;;;;;5114438;28;20570;-68
2021/06/03 09:18:09;;;;;;;6.33;5.73;;;;;;;;;;5115125;28;20484;-68
2021/06/03 09:20:36;;;;;;;6.30;5.70;;;;;;;;;;5082149;22;20557;-66
2021/06/03 09:23:04;;;;;;;5.10;4.70;;;;;;;;;;5063093;28;20462;-63
2021/06/03 09:25:34;;;;;;;6.93;6.00;;;;;;;;;;5059022;28;20448;-64
2021/06/03 09:28:22;;;;;;;6.10;5.60;;;;;;;;;;5034419;28;20425;-64
2021/06/03 09:30:52;;;;;;;6.03;5.60;;;;;;;;;;5010361;28;20477;-64
2021/06/03 09:33:18;;;;;;;4.97;4.67;;;;;;;;;;5014567;28;20453;-64
2021/06/03 09:35:54;;;;;;;6.93;5.50;;;;;;;;;;5030652;28;20449;-63
2021/06/03 09:38:22;;;;;;;6.97;5.90;;;;;;;;;;5034053;28;21006;-63
2021/06/03 09:40:49;;;;;;;6.10;5.53;;;;;;;;;;5033903;28;21010;-64
2021/06/03 09:43:20;;;;;;;6.10;5.70;;;;;;;;;;5034137;28;20456;-63
2021/06/03 09:45:54;;;;;;;5.80;5.30;;;;;;;;;;5033460;28;20990;-64
2021/06/03 09:48:36;;;;;;;6.13;5.63;;;;;;;;;;5034218;28;20448;-63
2021/06/03 09:51:22;;;;;;;5.83;5.33;;;;;;;;;;5033119;28;20480;-64
2021/06/03 09:54:07;;;;;;;6.43;5.87;;;;;;;;;;5033906;28;20452;-63
2021/06/03 09:56:36;;;;;;;8.20;6.00;;;;;;;;;;5033439;28;20520;-63
2021/06/03 09:59:04;;;;;;;6.40;5.37;;;;;;;;;;5033376;28;20688;-63
2021/06/03 10:01:41;;;;;;;7.37;6.17;;;;;;;;;;5033757;28;20967;-63
2021/06/03 10:04:08;;;;;;;6.73;5.20;;;;;;;;;;5033800;28;20445;-63
2021/06/03 10:06:35;;;;;;;6.37;5.63;;;;;;;;;;5033153;28;20459;-64
2021/06/03 10:09:01;;;;;;;6.23;5.60;;;;;;;;;;5034201;28;20459;-64
2021/06/03 10:11:45;;;;;;;6.50;6.00;;;;;;;;;;5033826;28;20455;-63
2021/06/03 10:14:13;;;;;;;6.57;5.33;;;;;;;;;;5033278;28;20464;-64
2021/06/03 10:16:40;;;;;;;6.10;5.57;;;;;;;;;;5026138;28;20481;-63
2021/06/03 10:19:17;;;;;;;6.30;5.70;;;;;;;;;;5021696;28;20491;-66
2021/06/03 10:21:44;;;;;;;6.23;5.73;;;;;;;;;;5033942;28;20532;-66
2021/06/03 10:24:11;;;;;;;6.90;6.30;;;;;;;;;;5033078;28;20453;-66
2021/06/03 10:26:57;;;;;;;5.87;5.37;;;;;;;;;;5021445;28;20968;-66
2021/06/03 10:29:24;;;;;;;7.17;6.57;;;;;;;;;;5032970;28;20468;-65
2021/06/03 10:31:50;;;;;;;6.80;5.57;;;;;;;;;;5033745;28;20448;-63
2021/06/03 10:34:18;;;;;;;5.40;4.97;;;;;;;;;;5029701;28;20464;-63
2021/06/03 10:36:45;;;;;;;5.90;5.37;;;;;;;;;;5032318;28;20524;-63
2021/06/03 10:39:12;;;;;;;9.50;5.53;;;;;;;;;;5032624;28;21011;-62
2021/06/03 10:41:39;;;;;;;5.50;5.10;;;;;;;;;;5033333;28;20461;-63
2021/06/03 10:44:10;;;;;;;6.40;4.87;;;;;;;;;;5033296;28;20445;-63
2021/06/03 10:46:36;;;;;;;5.70;5.20;;;;;;;;;;5032568;28;20461;-63
2021/06/03 10:49:03;;;;;;;6.70;5.90;;;;;;;;;;5018920;28;20453;-65
2021/06/03 10:51:30;;;;;;;5.77;5.27;;;;;;;;;;5028803;28;20449;-63
2021/06/03 10:53:57;;;;;;;9.17;6.77;;;;;;;;;;5032653;28;20908;-62
2021/06/03 10:56:26;;;;;;;8.70;5.13;;;;;;;;;;5026008;28;20456;-63
2021/06/03 10:58:53;;;;;;;7.83;5.30;;;;;;;;;;5020331;28;20450;-62
2021/06/03 11:01:23;;;;;;;9.23;5.30;;;;;;;;;;5040981;28;20452;-62
2021/06/03 11:03:51;;;;;;;10.80;6.07;;;;;;;;;;5032927;28;20453;-63
2021/06/03 11:06:19;;;;;;;15.43;5.20;;;;;;;;;;5025302;28;21085;-62
2021/06/03 11:08:46;;;;;;;11.23;5.10;;;;;;;;;;5032153;28;20445;-62
2021/06/03 11:11:27;;;;;;;5.63;5.10;;;;;;;;;;5039000;28;20502;-62
2021/06/03 11:14:07;;;;;;;7.37;5.43;;;;;;;;;;5021072;28;20453;-62
2021/06/03 11:16:54;;;;;;;5.43;4.90;;;;;;;;;;5031945;28;20543;-62
2021/06/03 11:19:21;;;;;;;5.90;5.40;;;;;;;;;;5031606;28;20848;-62
2021/06/03 11:21:49;;;;;;;7.50;5.23;;;;;;;;;;5031437;28;20451;-62
2021/06/03 11:24:33;;;;;;;9.80;5.80;;;;;;;;;;5031885;28;20456;-62
2021/06/03 11:27:00;;;;;;;6.17;5.40;;;;;;;;;;5011026;28;20454;-61
2021/06/03 11:29:28;;;;;;;5.50;5.00;;;;;;;;;;5024484;28;20495;-61
2021/06/03 11:32:10;;;;;;;7.20;5.10;;;;;;;;;;5028663;28;20534;-61
2021/06/03 11:34:44;;;;;;;6.60;5.27;;;;;;;;;;5020558;28;20902;-61
2021/06/03 11:37:12;;;;;;;9.40;5.70;;;;;;;;;;5031588;28;20480;-61
2021/06/03 11:39:41;;;;;;;7.30;5.13;;;;;;;;;;5021939;28;20480;-61
2021/06/03 11:42:24;;;;;;;9.13;5.57;;;;;;;;;;5032073;28;20453;-61
2021/06/03 11:45:21;;;;;;;5.87;5.30;;;;;;;;;;5031563;28;20455;-61
2021/06/03 11:48:01;;;;;;;5.90;5.07;;;;;;;;;;5031742;28;20448;-61
2021/06/03 11:50:37;;;;;;;5.90;5.40;;;;;;;;;;5029710;28;20480;-61
2021/06/03 11:53:21;;;;;;;6.97;5.30;;;;;;;;;;5032460;28;20480;-61
2021/06/03 11:55:49;;;;;;;7.70;6.00;;;;;;;;;;5031517;28;20448;-62
2021/06/03 11:58:18;;;;;;;6.10;5.50;;;;;;;;;;5031835;28;20491;-61
2021/06/03 12:00:46;;;;;;;6.60;5.17;;;;;;;;;;5032565;28;20476;-61
2021/06/03 12:03:30;;;;;;;6.43;5.50;;;;;;;;;;5033386;28;20492;-61
2021/06/03 12:05:59;;;;;;;5.63;4.90;;;;;;;;;;5049237;28;20441;-61
2021/06/03 12:08:42;;;;;;;6.63;5.10;;;;;;;;;;5048872;28;20471;-61
2021/06/03 12:11:10;;;;;;;5.63;4.80;;;;;;;;;;5046357;28;20511;-61
2021/06/03 12:13:37;;;;;;;5.90;5.20;;;;;;;;;;5046329;28;20455;-61
2021/06/03 12:16:04;;;;;;;5.60;5.10;;;;;;;;;;5033832;28;20471;-62
2021/06/03 12:18:34;;;;;;;6.23;5.27;;;;;;;;;;5031898;28;21094;-61
2021/06/03 12:21:02;;;;;;;5.87;5.37;;;;;;;;;;5031353;28;20484;-61
2021/06/03 12:23:29;;;;;;;6.83;5.30;;;;;;;;;;5029684;28;20452;-61
2021/06/03 12:25:56;;;;;;;5.83;5.13;;;;;;;;;;5026036;28;20955;-61
2021/06/03 12:28:23;;;;;;;6.60;6.00;;;;;;;;;;5031693;28;20444;-62
2021/06/03 12:30:49;;;;;;;6.00;5.50;;;;;;;;;;5030366;28;20487;-62
2021/06/03 12:33:23;;;;;;;6.23;5.73;;;;;;;;;;5030665;28;20801;-62
2021/06/03 12:35:51;;;;;;;5.93;5.30;;;;;;;;;;5032057;28;20510;-62
2021/06/03 12:38:27;;;;;;;5.43;5.03;;;;;;;;;;5032127;28;20483;-63
2021/06/03 12:40:54;;;;;;;8.43;5.70;;;;;;;;;;5035447;28;20472;-63
2021/06/03 12:43:21;;;;;;;6.80;5.47;;;;;;;;;;5035336;28;20448;-62
2021/06/03 12:45:48;;;;;;;5.87;5.37;;;;;;;;;;5034080;28;20453;-63
2021/06/03 12:48:15;;;;;;;6.70;6.10;;;;;;;;;;5035032;28;20456;-63
2021/06/03 12:50:43;;;;;;;6.00;5.50;;;;;;;;;;5035432;28;20479;-63
2021/06/03 12:53:10;;;;;;;8.43;5.17;;;;;;;;;;5035234;28;20453;-62
2021/06/03 12:55:39;;;;;;;5.60;5.07;;;;;;;;;;5034874;28;20459;-62
2021/06/03 12:58:06;;;;;;;5.23;4.50;;;;;;;;;;5032915;28;20484;-62
2021/06/03 13:00:33;;;;;;;5.60;5.07;;;;;;;;;;5035244;28;20476;-63
2021/06/03 13:03:09;;;;;;;5.80;5.30;;;;;;;;;;5026490;28;20453;-63
2021/06/03 13:05:35;;;;;;;5.80;5.30;;;;;;;;;;5034077;28;20448;-62
2021/06/03 13:08:02;;;;;;;6.80;5.10;;;;;;;;;;5034689;28;20451;-63
2021/06/03 13:10:29;;;;;;;5.27;4.70;;;;;;;;;;5034863;28;20487;-63
2021/06/03 13:12:59;;;;;;;5.00;4.50;;;;;;;;;;5035131;28;20788;-65
2021/06/03 13:15:26;;;;;;;5.90;4.40;;;;;;;;;;5033336;28;20448;-65
2021/06/03 13:17:55;;;;;;;5.73;5.13;;;;;;;;;;5033481;28;20484;-66
2021/06/03 13:20:23;;;;;;;6.47;4.90;;;;;;;;;;5032484;28;20476;-64
2021/06/03 13:22:50;;;;;;;7.47;5.47;;;;;;;;;;5034673;28;20452;-65
2021/06/03 13:25:18;;;;;;;6.80;6.00;;;;;;;;;;5033881;28;20452;-63
2021/06/03 13:27:45;;;;;;;6.70;6.00;;;;;;;;;;5034778;28;20487;-67
2021/06/03 13:30:15;;;;;;;8.40;6.57;;;;;;;;;;5034639;28;20476;-65
2021/06/03 13:32:42;;;;;;;8.47;5.87;;;;;;;;;;5033991;28;20672;-65
2021/06/03 13:35:10;;;;;;;8.03;5.97;;;;;;;;;;5035006;28;20457;-63
2021/06/03 13:37:37;;;;;;;9.37;6.10;;;;;;;;;;5033849;28;20503;-63
2021/06/03 13:40:07;;;;;;;8.40;5.80;;;;;;;;;;5035191;28;20890;-63
2021/06/03 13:42:37;;;;;;;6.50;6.00;;;;;;;;;;5034442;28;20452;-63
2021/06/03 13:45:05;;;;;;;6.90;5.80;;;;;;;;;;5034719;28;20440;-63
2021/06/03 13:47:41;;;;;;;5.73;5.17;;;;;;;;;;5034116;28;20448;-63
2021/06/03 13:50:32;;;;;;;6.17;5.67;;;;;;;;;;5034836;28;20468;-63
2021/06/03 13:53:00;;;;;;;7.53;5.40;;;;;;;;;;5015194;28;20460;-63
2021/06/03 13:55:28;;;;;;;5.77;5.17;;;;;;;;;;5034420;28;20452;-63
2021/06/03 13:57:55;;;;;;;6.27;5.67;;;;;;;;;;5034763;28;20549;-63
2021/06/03 14:00:30;;;;;;;6.67;5.87;;;;;;;;;;5034559;28;20472;-63
2021/06/03 14:03:08;;;;;;;5.70;4.67;;;;;;;;;;5032937;28;20460;-63
2021/06/03 14:05:36;;;;;;;6.40;5.83;;;;;;;;;;5034435;28;20495;-62
2021/06/03 14:08:10;;;;;;;6.27;5.47;;;;;;;;;;5034925;28;20445;-63
2021/06/03 14:10:56;;;;;;;5.53;5.13;;;;;;;;;;5034877;28;20464;-62
2021/06/03 14:13:22;;;;;;;6.27;5.60;;;;;;;;;;5035340;28;20460;-62
2021/06/03 14:15:49;;;;;;;5.83;5.33;;;;;;;;;;5033421;28;20540;-61
2021/06/03 14:18:17;;;;;;;6.40;5.80;;;;;;;;;;5034413;28;20854;-63
2021/06/03 14:20:44;;;;;;;9.73;5.93;;;;;;;;;;5034044;28;20491;-62
2021/06/03 14:23:10;;;;;;;5.90;5.40;;;;;;;;;;5035018;28;20864;-62
2021/06/03 14:25:38;;;;;;;6.27;5.67;;;;;;;;;;5033746;28;20448;-62
2021/06/03 14:28:12;;;;;;;6.00;5.50;;;;;;;;;;5035145;28;20456;-62
2021/06/03 14:30:39;;;;;;;6.70;5.70;;;;;;;;;;5035271;28;20475;-62
2021/06/03 14:33:06;;;;;;;6.53;5.90;;;;;;;;;;5021693;28;20453;-62
2021/06/03 14:35:35;;;;;;;6.13;5.60;;;;;;;;;;5014953;28;20449;-62
2021/06/03 14:38:07;;;;;;;6.00;5.50;;;;;;;;;;5014833;28;20493;-62
2021/06/03 14:40:34;;;;;;;5.87;5.27;;;;;;;;;;5015647;28;20473;-62
2021/06/03 14:43:06;;;;;;;6.13;5.63;;;;;;;;;;5015561;28;20450;-63
2021/06/03 14:45:32;;;;;;;6.53;5.20;;;;;;;;;;5015264;28;20457;-61
2021/06/03 14:48:00;;;;;;;6.47;4.90;;;;;;;;;;5015676;28;20441;-62
2021/06/03 14:50:28;;;;;;;6.10;5.50;;;;;;;;;;5037410;28;20483;-62
2021/06/03 14:52:57;;;;;;;6.83;6.23;;;;;;;;;;5037784;28;20858;-62